Time;durP1;ratioP1;P1;durP2;ratioP2;P2;SDS_P1;SDS_P2;PMS_P1;PMS_P2;Temp;Humidity;BMP_temperature;BMP_pressure;BME280_temperature;BME280_humidity;BME280_pressure;Samples;Min_cycle;Max_cycle;Signal;HPM_P1;HPM_P2
2021/03/26 00:01:05;;;;;;;11.77;6.77;;;5.60;87.00;;;;;;4771966;30;20278;-74
2021/03/26 00:03:34;;;;;;;12.73;6.77;;;5.60;87.40;;;;;;4755105;30;20059;-75
2021/03/26 00:06:05;;;;;;;15.70;8.63;;;5.60;87.30;;;;;;4777467;30;20048;-74
2021/03/26 00:08:32;;;;;;;10.00;7.13;;;5.60;87.50;;;;;;4764595;30;20488;-75
2021/03/26 00:10:59;;;;;;;15.57;7.40;;;5.50;88.20;;;;;;4750124;30;20415;-78
2021/03/26 00:13:25;;;;;;;14.07;7.30;;;5.60;87.70;;;;;;4752544;30;20052;-78
2021/03/26 00:15:52;;;;;;;13.93;8.83;;;5.50;87.70;;;;;;4762713;30;20066;-79
2021/03/26 00:18:19;;;;;;;10.37;6.20;;;5.50;88.00;;;;;;4764189;30;20059;-79
2021/03/26 00:20:46;;;;;;;13.77;8.03;;;5.50;88.70;;;;;;4764266;29;20056;-78
2021/03/26 00:23:12;;;;;;;10.40;6.23;;;5.40;88.20;;;;;;4749710;30;20496;-79
2021/03/26 00:25:39;;;;;;;12.33;5.77;;;5.50;88.30;;;;;;4763946;30;20054;-79
2021/03/26 00:28:06;;;;;;;14.63;7.47;;;5.40;88.30;;;;;;4747518;30;20051;-79
2021/03/26 00:30:34;;;;;;;12.83;8.67;;;5.40;88.30;;;;;;4762059;30;20063;-78
2021/03/26 00:33:02;;;;;;;12.43;8.30;;;5.40;88.50;;;;;;4774180;30;20066;-79
2021/03/26 00:35:29;;;;;;;12.10;7.43;;;5.40;88.60;;;;;;4762826;30;20058;-79
2021/03/26 00:37:56;;;;;;;16.17;8.97;;;5.40;88.70;;;;;;4763163;30;20070;-79
2021/03/26 00:40:24;;;;;;;13.83;7.70;;;5.30;88.80;;;;;;4762835;30;20056;-78
2021/03/26 00:42:51;;;;;;;13.73;8.17;;;5.30;88.90;;;;;;4760535;30;20039;-77
2021/03/26 00:45:26;;;;;;;15.77;8.07;;;5.30;89.00;;;;;;4762130;30;20047;-77
2021/03/26 00:47:53;;;;;;;11.87;7.30;;;5.30;89.10;;;;;;4762177;30;20048;-78
2021/03/26 00:50:23;;;;;;;12.70;7.43;;;5.20;89.00;;;;;;4747185;30;20043;-78
2021/03/26 00:52:50;;;;;;;10.50;6.77;;;5.20;89.10;;;;;;4760631;30;20070;-77
2021/03/26 00:55:18;;;;;;;15.23;8.83;;;5.20;89.30;;;;;;4762007;30;20067;-78
2021/03/26 00:57:44;;;;;;;11.67;7.23;;;5.30;89.40;;;;;;4761540;30;20060;-77
2021/03/26 01:00:16;;;;;;;12.27;7.50;;;5.30;89.40;;;;;;4761812;30;20047;-78
2021/03/26 01:02:42;;;;;;;15.40;9.43;;;5.30;89.70;;;;;;4759775;30;20408;-77
2021/03/26 01:05:11;;;;;;;11.43;7.60;;;5.30;89.50;;;;;;4762254;30;20052;-77
2021/03/26 01:07:38;;;;;;;14.40;9.37;;;5.40;89.50;;;;;;4760836;30;20040;-77
2021/03/26 01:10:10;;;;;;;12.83;8.03;;;5.40;89.30;;;;;;4761546;30;20068;-78
2021/03/26 01:12:37;;;;;;;10.50;7.32;;;5.40;89.40;;;;;;4759239;30;21251;-78
2021/03/26 01:15:07;;;;;;;18.20;10.53;;;5.40;89.40;;;;;;4747761;30;20047;-78
2021/03/26 01:17:34;;;;;;;14.07;9.23;;;5.40;89.50;;;;;;4762891;30;20063;-78
2021/03/26 01:20:01;;;;;;;14.23;9.23;;;5.40;89.60;;;;;;4761059;30;20063;-78
2021/03/26 01:22:28;;;;;;;17.57;11.67;;;5.30;89.60;;;;;;4744659;30;20051;-78
2021/03/26 01:25:00;;;;;;;14.73;10.03;;;5.30;89.80;;;;;;4747117;30;20044;-77
2021/03/26 01:27:40;;;;;;;14.03;9.70;;;5.30;89.90;;;;;;4746613;30;20430;-77
2021/03/26 01:30:16;;;;;;;13.30;8.13;;;5.30;90.00;;;;;;4761460;30;20044;-78
2021/03/26 01:32:43;;;;;;;12.13;7.80;;;5.30;90.00;;;;;;4759374;30;20075;-78
2021/03/26 01:35:11;;;;;;;14.17;8.80;;;5.30;90.00;;;;;;4775344;30;20512;-77
2021/03/26 01:37:38;;;;;;;18.80;12.00;;;5.30;90.10;;;;;;4760164;30;20424;-80
2021/03/26 01:40:08;;;;;;;15.13;10.30;;;5.30;90.10;;;;;;4761875;30;20052;-78
2021/03/26 01:42:37;;;;;;;15.73;11.43;;;5.30;90.20;;;;;;4762276;30;20063;-78
2021/03/26 01:45:09;;;;;;;15.03;10.67;;;5.30;90.20;;;;;;4750419;30;20043;-78
2021/03/26 01:47:46;;;;;;;19.52;12.85;;;5.30;90.20;;;;;;4750526;30;20039;-78
2021/03/26 01:50:16;;;;;;;16.70;11.93;;;5.30;90.20;;;;;;4765191;30;20066;-77
2021/03/26 01:52:43;;;;;;;16.43;10.40;;;5.40;90.30;;;;;;4754266;30;20039;-77
2021/03/26 01:55:17;;;;;;;20.97;12.20;;;5.40;90.30;;;;;;4754127;30;20095;-78
2021/03/26 01:57:44;;;;;;;17.67;12.70;;;5.50;90.30;;;;;;4763163;30;20052;-78
2021/03/26 02:00:21;;;;;;;;;;;5.60;90.30;;;;;;4757474;30;20427;-78
2021/03/26 02:02:49;;;;;;;16.87;11.80;;;5.60;90.20;;;;;;4764267;29;19918;-78
2021/03/26 02:05:38;;;;;;;17.77;11.83;;;5.60;90.10;;;;;;4766299;30;20068;-78
2021/03/26 02:08:04;;;;;;;20.80;12.00;;;5.70;90.20;;;;;;4780218;30;20040;-78
2021/03/26 02:10:42;;;;;;;18.37;12.37;;;5.70;90.20;;;;;;4763676;30;20052;-77
2021/03/26 02:13:30;;;;;;;22.80;12.67;;;5.70;90.30;;;;;;4749958;30;20055;-77
2021/03/26 02:16:07;;;;;;;20.23;13.23;;;5.60;90.30;;;;;;4765197;30;20046;-79
2021/03/26 02:18:41;;;;;;;20.63;13.43;;;5.60;90.40;;;;;;4753072;30;20052;-78
2021/03/26 02:21:11;;;;;;;21.90;12.70;;;5.50;90.70;;;;;;4764245;30;20051;-78
2021/03/26 02:23:52;;;;;;;19.97;12.93;;;5.50;90.50;;;;;;4763166;29;20052;-78
2021/03/26 02:26:27;;;;;;;20.37;12.77;;;5.50;90.60;;;;;;4749400;30;20040;-78
2021/03/26 02:29:03;;;;;;;19.83;13.83;;;5.40;90.70;;;;;;4764304;30;20054;-77
2021/03/26 02:31:53;;;;;;;17.63;12.73;;;5.40;90.80;;;;;;4762687;30;20086;-78
2021/03/26 02:34:21;;;;;;;21.83;14.07;;;5.30;90.80;;;;;;4763850;30;20407;-78
2021/03/26 02:36:53;;;;;;;15.80;10.70;;;5.30;90.90;;;;;;4765145;30;20070;-78
2021/03/26 02:39:33;;;;;;;18.27;12.53;;;5.30;91.00;;;;;;4762309;30;20047;-78
2021/03/26 02:42:13;;;;;;;17.77;12.13;;;5.20;91.00;;;;;;4749061;30;20060;-80
2021/03/26 02:45:16;;;;;;;17.30;11.43;;;5.20;91.00;;;;;;4748610;30;20411;-77
2021/03/26 02:48:04;;;;;;;17.20;12.43;;;5.10;91.10;;;;;;4760661;30;20050;-78
2021/03/26 02:50:47;;;;;;;21.80;13.80;;;5.10;91.20;;;;;;4750244;30;20047;-78
2021/03/26 02:53:52;;;;;;;18.73;13.03;;;5.00;91.30;;;;;;4776371;29;20044;-77
2021/03/26 02:56:38;;;;;;;17.20;11.57;;;5.00;91.30;;;;;;4757404;30;20039;-78
2021/03/26 02:59:13;;;;;;;19.77;12.03;;;4.90;91.30;;;;;;4778633;30;20763;-78
2021/03/26 03:01:50;;;;;;;16.50;10.90;;;4.90;91.40;;;;;;4764395;30;20043;-77
2021/03/26 03:04:21;;;;;;;;;;;4.90;91.40;;;;;;4748653;30;20409;-77
2021/03/26 03:06:55;;;;;;;17.77;11.77;;;4.80;91.40;;;;;;4771291;30;20401;-78
2021/03/26 03:09:32;;;;;;;18.27;12.63;;;4.80;91.40;;;;;;4763690;30;20035;-77
2021/03/26 03:12:18;;;;;;;24.03;14.10;;;4.80;91.40;;;;;;4756205;30;20066;-78
2021/03/26 03:15:08;;;;;;;21.30;14.43;;;4.80;91.50;;;;;;4762754;30;20954;-74
2021/03/26 03:17:50;;;;;;;20.63;12.50;;;4.90;91.60;;;;;;4762532;30;20044;-75
2021/03/26 03:20:36;;;;;;;21.27;14.77;;;5.00;91.50;;;;;;4748112;30;20039;-75
2021/03/26 03:23:35;;;;;;;22.10;14.67;;;5.00;91.50;;;;;;4746161;30;20552;-75
2021/03/26 03:27:01;;;;;;;18.40;10.80;;;5.10;91.40;;;;;;4767870;29;20508;-75
2021/03/26 03:29:39;;;;;;;22.40;12.50;;;5.10;91.40;;;;;;4760295;30;20492;-75
2021/03/26 03:32:37;;;;;;;23.13;15.30;;;5.10;91.40;;;;;;4758590;30;20043;-75
2021/03/26 03:35:24;;;;;;;24.93;16.70;;;5.20;91.40;;;;;;4761133;30;20047;-75
2021/03/26 03:38:14;;;;;;;25.23;16.33;;;5.20;91.40;;;;;;4761920;30;20043;-75
2021/03/26 03:40:50;;;;;;;23.70;14.63;;;5.30;91.40;;;;;;4760548;30;20051;-75
2021/03/26 03:43:29;;;;;;;17.37;11.67;;;5.40;91.40;;;;;;4744015;30;20068;-75
2021/03/26 03:46:18;;;;;;;20.73;12.63;;;5.50;91.40;;;;;;4761089;30;20477;-75
2021/03/26 03:49:14;;;;;;;;;;;5.50;91.40;;;;;;4741333;30;20078;-76
2021/03/26 03:52:16;;;;;;;22.53;13.13;;;5.60;91.30;;;;;;4764531;30;19921;-75
2021/03/26 03:54:57;;;;;;;19.33;11.83;;;5.70;91.30;;;;;;4775798;30;20040;-76
2021/03/26 03:57:36;;;;;;;27.13;18.37;;;5.70;91.20;;;;;;4745427;30;20051;-76
2021/03/26 04:00:22;;;;;;;25.98;16.48;;;5.80;91.30;;;;;;4740850;30;20080;-75
2021/03/26 04:03:14;;;;;;;28.67;19.00;;;5.80;91.50;;;;;;4750489;30;20055;-76
2021/03/26 04:06:06;;;;;;;;;;;5.90;91.50;;;;;;4746816;30;20841;-76
2021/03/26 04:08:43;;;;;;;27.57;17.47;;;6.00;91.50;;;;;;4760425;30;19940;-75
2021/03/26 04:11:25;;;;;;;28.93;19.90;;;6.00;91.50;;;;;;4745888;30;20040;-76
2021/03/26 04:14:33;;;;;;;25.37;16.60;;;6.10;91.70;;;;;;4744807;30;20392;-76
2021/03/26 04:17:11;;;;;;;30.90;17.77;;;6.10;91.80;;;;;;4761411;30;20051;-75
2021/03/26 04:20:03;;;;;;;35.77;22.87;;;6.20;91.80;;;;;;4763704;30;20040;-75
2021/03/26 04:22:36;;;;;;;34.08;23.70;;;6.20;92.10;;;;;;4761324;30;20051;-75
2021/03/26 04:25:25;;;;;;;27.57;17.53;;;6.20;92.10;;;;;;4762027;30;20035;-75
2021/03/26 04:28:17;;;;;;;25.30;17.03;;;6.30;92.20;;;;;;4774704;30;20040;-75
2021/03/26 04:31:02;;;;;;;32.90;19.67;;;6.30;92.20;;;;;;4765903;30;20052;-75
2021/03/26 04:33:47;;;;;;;25.10;16.73;;;6.40;92.30;;;;;;4764225;30;20047;-75
2021/03/26 04:36:22;;;;;;;27.03;18.07;;;6.40;92.20;;;;;;4748954;30;20082;-76
2021/03/26 04:39:17;;;;;;;26.27;17.05;;;6.50;92.30;;;;;;4760093;30;20499;-75
2021/03/26 04:41:52;;;;;;;22.23;15.17;;;6.50;92.30;;;;;;4759899;30;20035;-75
2021/03/26 04:44:52;;;;;;;27.20;19.17;;;6.50;92.20;;;;;;4773839;30;20535;-76
2021/03/26 04:47:40;;;;;;;24.55;16.63;;;6.60;92.40;;;;;;4745850;30;20499;-76
2021/03/26 04:50:38;;;;;;;24.52;16.58;;;6.60;92.20;;;;;;4764256;30;20076;-75
2021/03/26 04:53:20;;;;;;;23.42;15.75;;;6.60;92.30;;;;;;4742010;30;20058;-76
2021/03/26 04:55:55;;;;;;;25.53;17.53;;;6.70;92.30;;;;;;4745375;30;20052;-76
2021/03/26 04:59:00;;;;;;;28.60;18.70;;;6.70;92.30;;;;;;4753008;30;20067;-76
2021/03/26 05:01:49;;;;;;;29.58;20.17;;;6.70;92.20;;;;;;4758613;30;20058;-76
2021/03/26 05:04:21;;;;;;;22.40;13.43;;;6.70;92.20;;;;;;4744601;30;20499;-76
2021/03/26 05:06:58;;;;;;;33.73;21.03;;;6.70;92.30;;;;;;4759719;30;20419;-76
2021/03/26 05:09:29;;;;;;;36.60;24.73;;;6.70;92.40;;;;;;4760087;30;20039;-75
2021/03/26 05:12:24;;;;;;;39.00;26.13;;;6.80;92.50;;;;;;4757368;30;20425;-76
2021/03/26 05:15:21;;;;;;;34.38;24.27;;;6.80;92.70;;;;;;4762053;30;20059;-76
2021/03/26 05:18:05;;;;;;;36.03;24.48;;;6.80;92.90;;;;;;4775132;30;20481;-76
2021/03/26 05:20:49;;;;;;;32.72;20.85;;;6.80;92.80;;;;;;4749600;30;20051;-76
2021/03/26 05:23:51;;;;;;;31.63;22.03;;;6.80;92.90;;;;;;4761833;30;20048;-76
2021/03/26 05:26:25;;;;;;;34.07;22.33;;;6.80;92.80;;;;;;4776428;30;20396;-76
2021/03/26 05:29:14;;;;;;;39.77;25.20;;;6.90;92.90;;;;;;4758741;30;20590;-76
2021/03/26 05:32:02;;;;;;;29.73;20.17;;;6.90;92.90;;;;;;4761449;30;20048;-76
2021/03/26 05:35:19;;;;;;;32.78;21.40;;;7.00;93.00;;;;;;4754400;30;20543;-77
2021/03/26 05:38:14;;;;;;;32.75;20.73;;;7.00;93.00;;;;;;4775407;30;20752;-76
2021/03/26 05:41:24;;;;;;;25.70;16.90;;;7.00;92.90;;;;;;4715421;30;20506;-76
2021/03/26 05:44:47;;;;;;;34.03;23.00;;;7.00;93.00;;;;;;4763883;30;20051;-76
2021/03/26 05:47:43;;;;;;;29.30;20.30;;;7.00;93.00;;;;;;4756353;30;20043;-78
2021/03/26 05:50:53;;;;;;;29.58;21.38;;;7.00;93.00;;;;;;4750116;30;20051;-79
2021/03/26 05:54:22;;;;;;;28.20;18.10;;;7.10;93.00;;;;;;4756304;30;20059;-79
2021/03/26 05:57:25;;;;;;;33.07;21.40;;;7.10;92.90;;;;;;4748395;30;20059;-76
2021/03/26 06:00:26;;;;;;;28.50;20.48;;;7.20;92.90;;;;;;4761702;30;20044;-76
2021/03/26 06:03:34;;;;;;;28.13;18.52;;;7.20;93.00;;;;;;4762018;30;20053;-76
2021/03/26 06:06:47;;;;;;;26.53;17.80;;;7.30;93.00;;;;;;4763125;30;20048;-76
2021/03/26 06:10:09;;;;;;;29.23;17.75;;;7.30;93.00;;;;;;4770733;30;20066;-76
2021/03/26 06:13:26;;;;;;;30.83;18.75;;;7.40;93.00;;;;;;4758324;30;20044;-77
2021/03/26 06:16:29;;;;;;;29.20;20.40;;;7.40;92.90;;;;;;4766045;30;20403;-77
2021/03/26 06:19:47;;;;;;;31.77;21.08;;;7.50;92.90;;;;;;4751050;30;20040;-77
2021/03/26 06:22:52;;;;;;;27.08;18.45;;;7.60;92.90;;;;;;4747319;30;20039;-77
2021/03/26 06:26:37;;;;;;;22.33;12.55;;;7.60;92.90;;;;;;4762927;30;20047;-79
2021/03/26 06:29:26;;;;;;;29.20;19.60;;;7.70;92.90;;;;;;4733626;30;20063;-79
2021/03/26 06:32:27;;;;;;;24.92;16.60;;;7.80;92.80;;;;;;4778246;29;20503;-79
2021/03/26 06:35:13;;;;;;;37.05;21.90;;;7.80;93.00;;;;;;4764217;30;20066;-80
2021/03/26 06:38:07;;;;;;;28.83;18.08;;;7.90;92.70;;;;;;4765782;30;20055;-79
2021/03/26 06:41:38;;;;;;;29.35;18.75;;;7.90;92.80;;;;;;4764431;30;20056;-80
2021/03/26 06:44:34;;;;;;;33.20;21.15;;;8.00;92.70;;;;;;4725692;30;20053;-80
2021/03/26 06:47:06;;;;;;;26.98;17.45;;;8.10;92.70;;;;;;4726381;30;20044;-80
2021/03/26 06:49:51;;;;;;;29.48;17.05;;;8.20;92.60;;;;;;4745760;30;20044;-80
2021/03/26 06:52:39;;;;;;;18.45;11.60;;;8.30;92.60;;;;;;4762338;30;20074;-80
2021/03/26 06:55:11;;;;;;;33.80;21.25;;;8.40;92.60;;;;;;4778507;30;20051;-79
2021/03/26 06:57:56;;;;;;;27.10;15.73;;;8.50;92.50;;;;;;4761950;30;20484;-80
2021/03/26 07:01:19;;;;;;;30.02;18.75;;;8.50;92.50;;;;;;4765054;29;20063;-80
2021/03/26 07:04:07;;;;;;;28.90;18.70;;;8.60;92.50;;;;;;4727461;30;20424;-80
2021/03/26 07:07:04;;;;;;;32.00;19.15;;;8.70;92.40;;;;;;4745269;30;20060;-80
2021/03/26 07:09:45;;;;;;;30.95;19.05;;;8.70;92.40;;;;;;4763635;30;20055;-80
2021/03/26 07:12:40;;;;;;;35.78;23.00;;;8.80;92.30;;;;;;4767590;30;20530;-80
2021/03/26 07:15:16;;;;;;;36.85;23.38;;;8.90;92.40;;;;;;4764830;30;20522;-80
2021/03/26 07:18:01;;;;;;;31.10;20.50;;;8.90;92.40;;;;;;4749323;30;20048;-80
2021/03/26 07:20:46;;;;;;;42.45;27.75;;;9.00;92.30;;;;;;4763690;30;20043;-80
2021/03/26 07:23:31;;;;;;;43.85;27.58;;;9.10;92.30;;;;;;4761355;30;20055;-80
2021/03/26 07:26:31;;;;;;;36.88;24.45;;;9.20;92.30;;;;;;4763212;30;20054;-80
2021/03/26 07:29:29;;;;;;;39.28;24.65;;;9.20;92.30;;;;;;4776560;30;20047;-80
2021/03/26 07:32:14;;;;;;;39.05;25.05;;;9.30;92.20;;;;;;4761663;30;20140;-80
2021/03/26 07:34:59;;;;;;;38.13;23.77;;;9.40;92.10;;;;;;4762941;30;20047;-80
2021/03/26 07:37:45;;;;;;;33.78;22.35;;;9.40;92.00;;;;;;4762603;30;20040;-80
2021/03/26 07:40:41;;;;;;;44.17;29.63;;;9.50;92.00;;;;;;4763551;30;20052;-80
2021/03/26 07:43:35;;;;;;;39.28;27.92;;;9.60;91.90;;;;;;4744160;30;20488;-80
2021/03/26 07:46:19;;;;;;;29.55;20.50;;;9.70;91.80;;;;;;4764998;30;20942;-80
2021/03/26 07:48:54;;;;;;;33.17;22.45;;;9.80;91.70;;;;;;4764857;30;20047;-80
2021/03/26 07:51:25;;;;;;;43.08;26.20;;;9.90;91.70;;;;;;4761056;30;20048;-80
2021/03/26 07:54:34;;;;;;;38.50;24.90;;;9.90;91.50;;;;;;4761219;30;20051;-81
2021/03/26 07:57:10;;;;;;;38.63;25.45;;;10.00;91.40;;;;;;4747277;30;20050;-80
2021/03/26 08:00:03;;;;;;;37.80;26.83;;;10.10;91.30;;;;;;4763709;30;20062;-80
2021/03/26 08:02:40;;;;;;;35.00;23.77;;;10.10;91.20;;;;;;4761966;29;20684;-80
2021/03/26 08:05:22;;;;;;;36.25;24.83;;;10.30;91.20;;;;;;4763374;30;20504;-80
2021/03/26 08:08:05;;;;;;;34.70;25.25;;;10.50;91.00;;;;;;4751670;30;20052;-81
2021/03/26 08:10:55;;;;;;;34.05;23.80;;;10.70;90.70;;;;;;4776872;30;20043;-80
2021/03/26 08:14:02;;;;;;;39.00;24.75;;;10.80;90.40;;;;;;4750770;30;20557;-81
2021/03/26 08:17:14;;;;;;;36.13;26.00;;;10.90;90.20;;;;;;4776852;30;20051;-80
2021/03/26 08:19:56;;;;;;;34.27;23.73;;;10.90;89.80;;;;;;4735321;30;20201;-81
2021/03/26 08:22:41;;;;;;;35.60;24.27;;;10.90;89.60;;;;;;4740332;30;20052;-81
2021/03/26 08:25:34;;;;;;;32.38;24.42;;;10.90;89.60;;;;;;4759050;30;20412;-81
2021/03/26 08:28:31;;;;;;;35.88;23.60;;;11.00;89.40;;;;;;4763954;30;20059;-81
2021/03/26 08:31:22;;;;;;;31.25;21.67;;;11.20;89.10;;;;;;4764780;30;20050;-81
2021/03/26 08:34:14;;;;;;;32.75;22.73;;;11.50;88.40;;;;;;4762183;30;20051;-81
2021/03/26 08:36:49;;;;;;;34.33;22.83;;;11.70;87.70;;;;;;4765746;30;20054;-79
2021/03/26 08:39:22;;;;;;;29.13;20.27;;;11.90;86.90;;;;;;4776684;30;20052;-81
2021/03/26 08:42:03;;;;;;;36.28;24.70;;;12.00;86.30;;;;;;4747595;30;20069;-81
2021/03/26 08:44:32;;;;;;;34.35;24.23;;;12.10;84.60;;;;;;4762680;30;20039;-81
2021/03/26 08:47:02;;;;;;;30.13;20.73;;;12.20;83.60;;;;;;4763188;30;20412;-82
2021/03/26 08:50:10;;;;;;;30.35;21.98;;;12.30;83.50;;;;;;4747954;30;20048;-82
2021/03/26 08:52:50;;;;;;;28.13;17.80;;;12.50;82.90;;;;;;4733336;30;20071;-82
2021/03/26 08:55:17;;;;;;;28.75;20.85;;;12.70;83.00;;;;;;4767298;30;20059;-82
2021/03/26 08:58:05;;;;;;;28.33;19.48;;;12.90;81.70;;;;;;4763691;30;20036;-82
2021/03/26 09:01:10;;;;;;;29.02;21.05;;;13.00;81.60;;;;;;4753298;30;20052;-81
2021/03/26 09:04:16;;;;;;;28.27;19.83;;;13.20;80.60;;;;;;4775512;30;20912;-82
2021/03/26 09:06:54;;;;;;;29.13;21.23;;;13.40;80.60;;;;;;4742563;30;20803;-82
2021/03/26 09:09:48;;;;;;;28.30;19.83;;;13.50;79.80;;;;;;4756540;30;20050;-79
2021/03/26 09:12:49;;;;;;;23.60;17.35;;;13.70;78.70;;;;;;4773476;30;20546;-80
2021/03/26 09:15:40;;;;;;;41.80;29.23;;;13.80;78.60;;;;;;4735190;30;20056;-79
2021/03/26 09:18:59;;;;;;;27.65;20.92;;;14.00;77.80;;;;;;4762859;30;20493;-79
2021/03/26 09:21:34;;;;;;;27.88;19.90;;;14.20;77.40;;;;;;4759388;30;20056;-80
2021/03/26 09:24:13;;;;;;;23.10;17.10;;;14.20;76.10;;;;;;4764640;30;20048;-79
2021/03/26 09:27:08;;;;;;;22.00;16.17;;;14.30;76.10;;;;;;4765979;30;20051;-79
2021/03/26 09:29:49;;;;;;;23.35;15.43;;;14.40;75.10;;;;;;4766030;30;20040;-82
2021/03/26 09:32:21;;;;;;;21.52;15.80;;;14.40;74.70;;;;;;4764311;30;20048;-82
2021/03/26 09:35:26;;;;;;;24.17;16.10;;;14.40;73.80;;;;;;4763032;30;20051;-80
2021/03/26 09:38:04;;;;;;;21.02;13.45;;;14.40;73.40;;;;;;4753864;30;20060;-81
2021/03/26 09:40:54;;;;;;;23.27;14.82;;;14.40;71.30;;;;;;4760666;30;20043;-81
2021/03/26 09:43:28;;;;;;;19.95;13.43;;;14.50;70.80;;;;;;4762234;30;20058;-82
2021/03/26 09:46:09;;;;;;;28.27;19.63;;;14.60;70.60;;;;;;4773238;30;20377;-79
2021/03/26 09:48:41;;;;;;;22.13;14.93;;;14.70;70.10;;;;;;4773726;30;20032;-79
2021/03/26 09:51:16;;;;;;;23.40;14.90;;;14.80;68.90;;;;;;4760404;30;20071;-79
2021/03/26 09:53:43;;;;;;;17.40;12.23;;;14.90;68.30;;;;;;4772631;29;20499;-77
2021/03/26 09:56:21;;;;;;;18.38;12.40;;;14.90;68.50;;;;;;4751472;30;20059;-84
2021/03/26 09:58:59;;;;;;;13.68;10.70;;;15.00;68.80;;;;;;4751113;30;20044;-76
2021/03/26 10:02:07;;;;;;;17.92;11.95;;;15.10;68.90;;;;;;4742949;30;20056;-76
2021/03/26 10:04:43;;;;;;;16.67;11.88;;;15.30;68.60;;;;;;4764091;30;20047;-76
2021/03/26 10:07:32;;;;;;;16.60;10.95;;;15.40;68.00;;;;;;4767974;29;20065;-75
2021/03/26 10:10:47;;;;;;;16.38;11.05;;;15.60;67.80;;;;;;4763055;30;20059;-76
2021/03/26 10:13:07;;;;;;;15.02;10.02;;;15.90;67.00;;;;;;4759461;30;20051;-76
2021/03/26 10:15:56;;;;;;;13.75;10.20;;;16.10;66.30;;;;;;4764651;30;20039;-74
2021/03/26 10:18:44;;;;;;;17.30;11.82;;;16.40;65.60;;;;;;4762874;30;20035;-75
2021/03/26 10:21:20;;;;;;;15.27;10.38;;;16.50;65.00;;;;;;4763323;30;20047;-76
2021/03/26 10:24:17;;;;;;;14.40;9.93;;;16.70;61.90;;;;;;4749520;30;20522;-75
2021/03/26 10:26:51;;;;;;;15.10;7.78;;;16.60;61.60;;;;;;4763018;30;20063;-75
2021/03/26 10:29:23;;;;;;;13.73;7.80;;;16.40;60.90;;;;;;4763079;30;20491;-75
2021/03/26 10:31:51;;;;;;;12.03;7.17;;;16.20;61.40;;;;;;4757521;30;20052;-76
2021/03/26 10:34:30;;;;;;;13.95;7.40;;;16.00;61.60;;;;;;4761190;30;20136;-75
2021/03/26 10:37:28;;;;;;;10.23;6.57;;;15.90;62.30;;;;;;4761391;30;20046;-75
2021/03/26 10:40:03;;;;;;;14.35;7.55;;;15.90;62.60;;;;;;4760526;30;20070;-76
2021/03/26 10:43:02;;;;;;;12.23;7.18;;;15.90;62.40;;;;;;4745297;30;20043;-75
2021/03/26 10:45:34;;;;;;;12.30;6.00;;;16.00;61.70;;;;;;4737357;30;20056;-75
2021/03/26 10:48:19;;;;;;;11.15;6.22;;;16.10;61.10;;;;;;4763214;30;20060;-76
2021/03/26 10:51:22;;;;;;;10.10;4.90;;;16.20;60.90;;;;;;4756409;30;20551;-78
2021/03/26 10:53:54;;;;;;;9.40;4.80;;;16.20;60.60;;;;;;4745595;30;20052;-78
2021/03/26 10:56:42;;;;;;;6.57;4.32;;;16.30;60.50;;;;;;4776472;29;20397;-82
2021/03/26 10:59:34;;;;;;;8.43;4.00;;;16.20;59.50;;;;;;4749424;30;20051;-82
2021/03/26 11:02:24;;;;;;;9.52;4.35;;;16.20;60.30;;;;;;4772613;30;20079;-78
2021/03/26 11:05:32;;;;;;;9.10;3.60;;;16.30;60.10;;;;;;4731036;30;20514;-78
2021/03/26 11:08:01;;;;;;;7.28;3.03;;;16.40;59.40;;;;;;4693523;30;20048;-76
2021/03/26 11:11:01;;;;;;;6.70;2.20;;;16.50;58.90;;;;;;4708021;30;20036;-76
2021/03/26 11:13:30;;;;;;;7.00;2.47;;;16.70;57.60;;;;;;4735678;30;20054;-76
2021/03/26 11:16:06;;;;;;;6.05;2.95;;;16.70;56.40;;;;;;4763785;29;20047;-76
2021/03/26 11:18:46;;;;;;;7.05;2.35;;;16.60;55.90;;;;;;4777121;30;20040;-76
2021/03/26 11:21:19;;;;;;;7.22;2.72;;;16.40;56.30;;;;;;4762135;30;20123;-76
2021/03/26 11:24:07;;;;;;;7.45;1.98;;;16.40;56.50;;;;;;4747573;30;20043;-77
2021/03/26 11:27:05;;;;;;;5.13;1.42;;;16.60;55.90;;;;;;4760362;30;20933;-78
2021/03/26 11:29:35;;;;;;;5.15;1.98;;;16.70;55.30;;;;;;4732199;30;20044;-78
2021/03/26 11:32:16;;;;;;;7.05;2.25;;;16.60;54.50;;;;;;4760728;30;20046;-76
2021/03/26 11:34:48;;;;;;;5.35;1.95;;;16.60;55.20;;;;;;4776148;30;20048;-76
2021/03/26 11:37:36;;;;;;;6.32;1.75;;;16.60;55.30;;;;;;4762718;30;20492;-76
2021/03/26 11:40:29;;;;;;;4.80;1.42;;;16.80;54.90;;;;;;4774857;30;20058;-75
2021/03/26 11:43:05;;;;;;;4.03;1.67;;;16.90;53.70;;;;;;4761370;30;20047;-76
2021/03/26 11:46:00;;;;;;;5.40;1.75;;;17.00;54.10;;;;;;4761344;30;20040;-76
2021/03/26 11:48:45;;;;;;;8.32;1.65;;;17.30;52.90;;;;;;4756085;30;20055;-76
2021/03/26 11:51:33;;;;;;;8.43;2.42;;;17.70;53.40;;;;;;4762461;30;20058;-80
2021/03/26 11:53:59;;;;;;;7.15;1.67;;;18.50;51.30;;;;;;4747339;30;20054;-80
2021/03/26 11:56:38;;;;;;;8.07;1.70;;;19.00;49.90;;;;;;4778076;30;20051;-80
2021/03/26 11:59:29;;;;;;;7.90;1.98;;;19.60;48.10;;;;;;4748626;30;20056;-80
2021/03/26 12:02:12;;;;;;;6.18;1.95;;;20.10;48.20;;;;;;4775588;30;20408;-81
2021/03/26 12:04:47;;;;;;;9.38;2.10;;;20.60;47.40;;;;;;4761991;30;20052;-80
2021/03/26 12:07:21;;;;;;;6.18;2.28;;;20.60;45.70;;;;;;4764368;29;20055;-80
2021/03/26 12:10:10;;;;;;;7.63;1.70;;;20.40;45.50;;;;;;4761894;30;20046;-79
2021/03/26 12:12:45;;;;;;;7.18;1.55;;;20.10;45.60;;;;;;4761632;30;20609;-80
2021/03/26 12:15:21;;;;;;;6.28;2.08;;;19.70;46.50;;;;;;4763675;30;20047;-80
2021/03/26 12:18:14;;;;;;;4.28;1.42;;;19.70;46.40;;;;;;4761172;30;20043;-79
2021/03/26 12:20:42;;;;;;;6.10;1.50;;;20.00;46.40;;;;;;4763918;29;20051;-80
2021/03/26 12:23:19;;;;;;;7.60;1.95;;;20.70;44.50;;;;;;4761212;30;20046;-81
2021/03/26 12:25:52;;;;;;;6.13;1.50;;;21.30;43.00;;;;;;4762864;30;20044;-81
2021/03/26 12:28:53;;;;;;;4.57;1.58;;;21.60;41.80;;;;;;4777187;30;20044;-81
2021/03/26 12:31:44;;;;;;;7.93;1.70;;;21.20;41.70;;;;;;4761366;30;20047;-81
2021/03/26 12:34:21;;;;;;;7.85;1.45;;;21.10;42.60;;;;;;4766132;30;20047;-77
2021/03/26 12:36:59;;;;;;;5.35;1.90;;;21.70;42.10;;;;;;4744276;30;20419;-76
2021/03/26 12:39:48;;;;;;;5.60;1.80;;;22.10;41.50;;;;;;4761125;30;20047;-77
2021/03/26 12:42:22;;;;;;;6.68;1.55;;;22.70;39.30;;;;;;4764971;29;20055;-76
2021/03/26 12:45:25;;;;;;;5.82;1.40;;;23.10;39.20;;;;;;4767181;30;20065;-77
2021/03/26 12:48:01;;;;;;;5.90;1.40;;;23.70;38.60;;;;;;4764499;30;20117;-78
2021/03/26 12:50:38;;;;;;;8.70;1.88;;;24.20;37.50;;;;;;4761510;30;20052;-77
2021/03/26 12:53:12;;;;;;;4.50;1.27;;;24.40;36.30;;;;;;4758073;30;20035;-77
2021/03/26 12:55:59;;;;;;;5.90;2.08;;;24.10;36.70;;;;;;4748893;30;20040;-77
2021/03/26 12:58:45;;;;;;;6.38;1.85;;;23.20;36.60;;;;;;4761282;30;20047;-76
2021/03/26 13:01:35;;;;;;;7.20;1.83;;;21.90;38.40;;;;;;4761689;29;20918;-77
2021/03/26 13:04:25;;;;;;;6.50;1.70;;;20.80;40.00;;;;;;4746373;30;20405;-78
2021/03/26 13:06:58;;;;;;;6.57;1.60;;;20.10;42.00;;;;;;4761684;30;20060;-76
2021/03/26 13:09:24;;;;;;;;;;;19.90;43.00;;;;;;4761165;30;20073;-76
2021/03/26 13:12:20;;;;;;;6.43;1.63;;;19.80;43.40;;;;;;4773525;29;20388;-76
2021/03/26 13:14:58;;;;;;;5.40;2.15;;;19.80;43.40;;;;;;4759156;30;20047;-76
2021/03/26 13:17:28;;;;;;;7.18;2.33;;;20.20;43.40;;;;;;4759755;30;20039;-76
2021/03/26 13:20:07;;;;;;;8.35;3.10;;;20.70;42.40;;;;;;4760157;30;20148;-76
2021/03/26 13:22:52;;;;;;;5.95;2.30;;;21.30;40.90;;;;;;4758026;30;20075;-76
2021/03/26 13:25:39;;;;;;;6.07;3.08;;;21.30;41.00;;;;;;4760971;30;20108;-76
2021/03/26 13:28:25;;;;;;;8.55;2.92;;;21.60;40.70;;;;;;4730777;30;20484;-76
2021/03/26 13:31:12;;;;;;;6.18;2.05;;;22.30;39.20;;;;;;4760372;30;20040;-76
2021/03/26 13:34:11;;;;;;;6.28;2.72;;;22.70;38.80;;;;;;4744597;30;20035;-76
2021/03/26 13:37:13;;;;;;;6.55;2.60;;;22.60;38.00;;;;;;4774020;29;20067;-76
2021/03/26 13:40:15;;;;;;;4.65;1.88;;;21.60;39.70;;;;;;4763577;30;20042;-76
2021/03/26 13:42:46;;;;;;;4.85;2.35;;;20.90;40.40;;;;;;4761907;30;20059;-76
2021/03/26 13:45:22;;;;;;;6.53;3.37;;;20.40;41.50;;;;;;4764998;30;20059;-76
2021/03/26 13:48:13;;;;;;;8.35;2.47;;;20.70;40.80;;;;;;4765460;29;20051;-76
2021/03/26 13:50:52;;;;;;;4.43;1.73;;;20.50;40.60;;;;;;4777364;30;20051;-76
2021/03/26 13:53:34;;;;;;;7.85;2.42;;;20.00;41.70;;;;;;4759932;30;20055;-76
2021/03/26 13:56:09;;;;;;;7.13;2.60;;;19.70;42.50;;;;;;4769049;30;20039;-76
2021/03/26 13:58:39;;;;;;;4.03;1.98;;;19.30;43.00;;;;;;4767904;29;20051;-76
2021/03/26 14:01:30;;;;;;;4.72;1.90;;;19.20;43.30;;;;;;4747906;30;20068;-76
2021/03/26 14:04:17;;;;;;;7.03;2.58;;;19.20;43.30;;;;;;4778203;30;20047;-79
2021/03/26 14:07:08;;;;;;;8.20;1.83;;;18.90;43.00;;;;;;4764754;30;20059;-79